sensor_id;sensor_type;location;lat;lon;timestamp;pressure;altitude;pressure_sealevel;temperature;humidity
61394;BME280;48555;50.952;-0.120;2023-02-12T00:00:31;103263.22;;;10.90;73.01
61394;BME280;48555;50.952;-0.120;2023-02-12T00:02:57;103260.72;;;10.87;73.15
61394;BME280;48555;50.952;-0.120;2023-02-12T00:05:22;103268.56;;;10.87;73.09
61394;BME280;48555;50.952;-0.120;2023-02-12T00:07:48;103258.16;;;10.86;73.07
61394;BME280;48555;50.952;-0.120;2023-02-12T00:10:13;103266.69;;;10.91;73.11
61394;BME280;48555;50.952;-0.120;2023-02-12T00:12:38;103261.44;;;10.93;72.85
61394;BME280;48555;50.952;-0.120;2023-02-12T00:15:04;103258.81;;;10.93;73.14
61394;BME280;48555;50.952;-0.120;2023-02-12T00:17:29;103263.19;;;10.92;72.92
61394;BME280;48555;50.952;-0.120;2023-02-12T00:19:55;103253.59;;;10.91;73.08
61394;BME280;48555;50.952;-0.120;2023-02-12T00:22:20;103255.38;;;10.90;73.02
61394;BME280;48555;50.952;-0.120;2023-02-12T00:24:45;103261.56;;;10.88;73.12
61394;BME280;48555;50.952;-0.120;2023-02-12T00:27:11;103261.47;;;10.91;73.25
61394;BME280;48555;50.952;-0.120;2023-02-12T00:29:37;103258.81;;;10.93;73.02
61394;BME280;48555;50.952;-0.120;2023-02-12T00:32:02;103248.47;;;10.88;72.87
61394;BME280;48555;50.952;-0.120;2023-02-12T00:34:28;103245.94;;;10.86;73.20
61394;BME280;48555;50.952;-0.120;2023-02-12T00:36:53;103245.94;;;10.86;73.33
61394;BME280;48555;50.952;-0.120;2023-02-12T00:39:18;103256.22;;;10.91;73.45
61394;BME280;48555;50.952;-0.120;2023-02-12T00:41:44;103251.91;;;10.90;73.34
61394;BME280;48555;50.952;-0.120;2023-02-12T00:44:09;103251.06;;;10.89;73.36
61394;BME280;48555;50.952;-0.120;2023-02-12T00:46:34;103262.47;;;10.87;73.20
61394;BME280;48555;50.952;-0.120;2023-02-12T00:49:00;103259.22;;;10.80;73.29
61394;BME280;48555;50.952;-0.120;2023-02-12T00:51:25;103254.13;;;10.76;73.51
61394;BME280;48555;50.952;-0.120;2023-02-12T00:53:50;103251.66;;;10.71;73.78
61394;BME280;48555;50.952;-0.120;2023-02-12T00:56:16;103260.06;;;10.81;73.58
61394;BME280;48555;50.952;-0.120;2023-02-12T00:58:41;103255.69;;;10.81;73.54
61394;BME280;48555;50.952;-0.120;2023-02-12T01:01:06;103261.94;;;10.77;73.67
61394;BME280;48555;50.952;-0.120;2023-02-12T01:03:32;103259.53;;;10.71;73.76
61394;BME280;48555;50.952;-0.120;2023-02-12T01:05:57;103261.97;;;10.76;73.78
61394;BME280;48555;50.952;-0.120;2023-02-12T01:08:22;103259.41;;;10.74;73.85
61394;BME280;48555;50.952;-0.120;2023-02-12T01:10:56;103252.53;;;10.72;74.02
61394;BME280;48555;50.952;-0.120;2023-02-12T01:13:22;103259.44;;;10.73;74.18
61394;BME280;48555;50.952;-0.120;2023-02-12T01:16:00;103255.88;;;10.75;73.79
61394;BME280;48555;50.952;-0.120;2023-02-12T01:18:25;103245.41;;;10.75;74.07
61394;BME280;48555;50.952;-0.120;2023-02-12T01:20:50;103254.13;;;10.76;73.99
61394;BME280;48555;50.952;-0.120;2023-02-12T01:23:16;103255.06;;;10.73;73.95
61394;BME280;48555;50.952;-0.120;2023-02-12T01:25:41;103253.47;;;10.69;73.92
61394;BME280;48555;50.952;-0.120;2023-02-12T01:28:09;103255.13;;;10.72;73.97
61394;BME280;48555;50.952;-0.120;2023-02-12T01:30:35;103251.66;;;10.71;74.31
61394;BME280;48555;50.952;-0.120;2023-02-12T01:33:00;103253.56;;;10.66;74.20
61394;BME280;48555;50.952;-0.120;2023-02-12T01:35:26;103246.56;;;10.66;74.29
61394;BME280;48555;50.952;-0.120;2023-02-12T01:37:51;103240.47;;;10.66;74.12
61394;BME280;48555;50.952;-0.120;2023-02-12T01:40:17;103239.75;;;10.61;74.38
61394;BME280;48555;50.952;-0.120;2023-02-12T01:42:42;103245.00;;;10.61;74.28
61394;BME280;48555;50.952;-0.120;2023-02-12T01:47:37;103248.09;;;10.45;74.40
61394;BME280;48555;50.952;-0.120;2023-02-12T01:50:03;103242.03;;;10.45;74.91
61394;BME280;48555;50.952;-0.120;2023-02-12T01:52:32;103238.38;;;10.51;74.79
61394;BME280;48555;50.952;-0.120;2023-02-12T01:55:02;103239.03;;;10.56;74.68
61394;BME280;48555;50.952;-0.120;2023-02-12T01:57:32;103234.72;;;10.55;74.61
61394;BME280;48555;50.952;-0.120;2023-02-12T01:59:59;103240.03;;;10.53;74.48
61394;BME280;48555;50.952;-0.120;2023-02-12T02:02:26;103240.34;;;10.42;74.95
61394;BME280;48555;50.952;-0.120;2023-02-12T02:04:56;103242.06;;;10.43;75.12
61394;BME280;48555;50.952;-0.120;2023-02-12T02:07:22;103250.72;;;10.45;75.00
61394;BME280;48555;50.952;-0.120;2023-02-12T02:09:48;103246.44;;;10.43;75.01
61394;BME280;48555;50.952;-0.120;2023-02-12T02:12:14;103245.59;;;10.42;75.32
61394;BME280;48555;50.952;-0.120;2023-02-12T02:14:59;103236.88;;;10.42;75.22
61394;BME280;48555;50.952;-0.120;2023-02-12T02:20:23;103249.56;;;10.54;75.07
61394;BME280;48555;50.952;-0.120;2023-02-12T02:23:18;103246.16;;;10.52;74.88
61394;BME280;48555;50.952;-0.120;2023-02-12T02:39:02;103234.31;;;10.40;75.59
61394;BME280;48555;50.952;-0.120;2023-02-12T02:41:45;103237.63;;;10.45;75.76
61394;BME280;48555;50.952;-0.120;2023-02-12T02:44:16;103230.59;;;10.48;75.51
61394;BME280;48555;50.952;-0.120;2023-02-12T02:46:48;103237.63;;;10.45;75.48
61394;BME280;48555;50.952;-0.120;2023-02-12T02:49:38;103231.69;;;10.40;75.36
61394;BME280;48555;50.952;-0.120;2023-02-12T02:52:16;103235.22;;;10.39;75.63
61394;BME280;48555;50.952;-0.120;2023-02-12T02:54:49;103222.25;;;10.36;75.68
61394;BME280;48555;50.952;-0.120;2023-02-12T02:57:25;103238.75;;;10.38;75.80
61394;BME280;48555;50.952;-0.120;2023-02-12T02:59:58;103239.59;;;10.39;75.52
61394;BME280;48555;50.952;-0.120;2023-02-12T03:02:31;103243.97;;;10.38;75.56
61394;BME280;48555;50.952;-0.120;2023-02-12T03:05:01;103235.31;;;10.36;75.81
61394;BME280;48555;50.952;-0.120;2023-02-12T03:07:32;103227.56;;;10.33;75.75
61394;BME280;48555;50.952;-0.120;2023-02-12T03:10:13;103228.31;;;10.37;75.88
61394;BME280;48555;50.952;-0.120;2023-02-12T03:13:11;103230.94;;;10.37;75.79
61394;BME280;48555;50.952;-0.120;2023-02-12T03:15:48;103236.34;;;10.31;75.86
61394;BME280;48555;50.952;-0.120;2023-02-12T03:18:21;103235.75;;;10.21;76.10
61394;BME280;48555;50.952;-0.120;2023-02-12T03:20:49;103239.41;;;10.15;76.32
61394;BME280;48555;50.952;-0.120;2023-02-12T03:23:39;103237.94;;;10.07;76.45
61394;BME280;48555;50.952;-0.120;2023-02-12T03:26:10;103223.09;;;10.07;76.37
61394;BME280;48555;50.952;-0.120;2023-02-12T03:28:37;103217.13;;;10.02;76.36
61394;BME280;48555;50.952;-0.120;2023-02-12T03:31:07;103217.88;;;10.06;76.58
61394;BME280;48555;50.952;-0.120;2023-02-12T03:36:23;103218.06;;;10.01;76.92
61394;BME280;48555;50.952;-0.120;2023-02-12T03:38:52;103223.38;;;9.98;76.88
61394;BME280;48555;50.952;-0.120;2023-02-12T03:41:31;103215.75;;;9.90;77.09
61394;BME280;48555;50.952;-0.120;2023-02-12T03:44:22;103215.84;;;9.87;77.03
61394;BME280;48555;50.952;-0.120;2023-02-12T03:47:00;103215.97;;;9.83;77.63
61394;BME280;48555;50.952;-0.120;2023-02-12T03:49:32;103219.72;;;9.74;77.66
61394;BME280;48555;50.952;-0.120;2023-02-12T03:51:59;103218.16;;;9.67;78.01
61394;BME280;48555;50.952;-0.120;2023-02-12T03:54:25;103215.78;;;9.59;78.37
61394;BME280;48555;50.952;-0.120;2023-02-12T03:57:03;103212.34;;;9.57;78.47
61394;BME280;48555;50.952;-0.120;2023-02-12T03:59:30;103216.81;;;9.53;78.80
61394;BME280;48555;50.952;-0.120;2023-02-12T04:01:57;103217.66;;;9.54;78.72
61394;BME280;48555;50.952;-0.120;2023-02-12T04:04:24;103220.28;;;9.52;78.97
61394;BME280;48555;50.952;-0.120;2023-02-12T04:06:50;103222.13;;;9.50;79.39
61394;BME280;48555;50.952;-0.120;2023-02-12T04:09:17;103216.88;;;9.50;79.26
61394;BME280;48555;50.952;-0.120;2023-02-12T04:14:29;103221.84;;;9.60;79.18
61394;BME280;48555;50.952;-0.120;2023-02-12T04:18:09;103217.31;;;9.66;79.22
61394;BME280;48555;50.952;-0.120;2023-02-12T04:25:20;103220.41;;;9.79;78.91
61394;BME280;48555;50.952;-0.120;2023-02-12T04:28:13;103224.69;;;9.82;78.99
61394;BME280;48555;50.952;-0.120;2023-02-12T04:30:46;103223.72;;;9.86;78.71
61394;BME280;48555;50.952;-0.120;2023-02-12T04:33:20;103228.13;;;9.84;78.62
61394;BME280;48555;50.952;-0.120;2023-02-12T04:35:50;103223.03;;;9.79;78.90
61394;BME280;48555;50.952;-0.120;2023-02-12T04:38:26;103217.13;;;9.72;78.96
61394;BME280;48555;50.952;-0.120;2023-02-12T04:40:53;103217.97;;;9.73;79.23
61394;BME280;48555;50.952;-0.120;2023-02-12T04:43:33;103222.53;;;9.66;79.18
61394;BME280;48555;50.952;-0.120;2023-02-12T04:45:59;103224.38;;;9.63;79.58
61394;BME280;48555;50.952;-0.120;2023-02-12T04:48:24;103222.78;;;9.57;79.55
61394;BME280;48555;50.952;-0.120;2023-02-12T04:50:50;103216.00;;;9.50;79.76
61394;BME280;48555;50.952;-0.120;2023-02-12T04:53:15;103223.91;;;9.48;79.97
61394;BME280;48555;50.952;-0.120;2023-02-12T04:55:41;103225.69;;;9.46;80.18
61394;BME280;48555;50.952;-0.120;2023-02-12T04:58:06;103224.97;;;9.41;80.13
61394;BME280;48555;50.952;-0.120;2023-02-12T05:00:31;103222.38;;;9.41;80.42
61394;BME280;48555;50.952;-0.120;2023-02-12T05:02:57;103231.00;;;9.43;80.26
61394;BME280;48555;50.952;-0.120;2023-02-12T05:05:23;103228.44;;;9.42;80.62
61394;BME280;48555;50.952;-0.120;2023-02-12T05:07:48;103228.47;;;9.40;80.51
61394;BME280;48555;50.952;-0.120;2023-02-12T05:10:14;103219.91;;;9.35;80.83
61394;BME280;48555;50.952;-0.120;2023-02-12T05:12:39;103217.34;;;9.33;80.86
61394;BME280;48555;50.952;-0.120;2023-02-12T05:15:05;103222.66;;;9.29;81.36
61394;BME280;48555;50.952;-0.120;2023-02-12T05:17:30;103217.59;;;9.24;81.63
61394;BME280;48555;50.952;-0.120;2023-02-12T05:19:56;103218.63;;;9.17;82.02
61394;BME280;48555;50.952;-0.120;2023-02-12T05:22:21;103224.00;;;9.13;82.46
61394;BME280;48555;50.952;-0.120;2023-02-12T05:24:46;103217.94;;;9.10;82.20
61394;BME280;48555;50.952;-0.120;2023-02-12T05:27:12;103215.31;;;9.12;82.45
61394;BME280;48555;50.952;-0.120;2023-02-12T05:29:37;103218.78;;;9.13;82.45
61394;BME280;48555;50.952;-0.120;2023-02-12T05:32:03;103219.63;;;9.13;82.31
61394;BME280;48555;50.952;-0.120;2023-02-12T05:34:29;103214.41;;;9.13;82.64
61394;BME280;48555;50.952;-0.120;2023-02-12T05:36:54;103216.19;;;9.11;83.13
61394;BME280;48555;50.952;-0.120;2023-02-12T05:39:20;103215.38;;;9.09;82.98
61394;BME280;48555;50.952;-0.120;2023-02-12T05:41:45;103223.94;;;9.14;83.14
61394;BME280;48555;50.952;-0.120;2023-02-12T05:44:11;103218.72;;;9.14;83.14
61394;BME280;48555;50.952;-0.120;2023-02-12T05:46:37;103223.06;;;9.15;83.21
61394;BME280;48555;50.952;-0.120;2023-02-12T05:49:03;103221.25;;;9.17;83.53
61394;BME280;48555;50.952;-0.120;2023-02-12T05:51:29;103216.94;;;9.16;83.81
61394;BME280;48555;50.952;-0.120;2023-02-12T05:53:58;103225.59;;;9.18;83.85
61394;BME280;48555;50.952;-0.120;2023-02-12T05:56:29;103223.84;;;9.17;83.79
61394;BME280;48555;50.952;-0.120;2023-02-12T05:59:00;103222.84;;;9.23;84.01
61394;BME280;48555;50.952;-0.120;2023-02-12T06:01:31;103216.69;;;9.25;84.28
61394;BME280;48555;50.952;-0.120;2023-02-12T06:04:01;103216.66;;;9.27;84.15
61394;BME280;48555;50.952;-0.120;2023-02-12T06:06:28;103215.75;;;9.28;84.00
61394;BME280;48555;50.952;-0.120;2023-02-12T06:08:54;103207.91;;;9.28;83.90
61394;BME280;48555;50.952;-0.120;2023-02-12T06:11:19;103212.19;;;9.30;84.38
61394;BME280;48555;50.952;-0.120;2023-02-12T06:13:46;103212.19;;;9.30;84.32
61394;BME280;48555;50.952;-0.120;2023-02-12T06:16:31;103208.69;;;9.31;84.47
61394;BME280;48555;50.952;-0.120;2023-02-12T06:18:57;103211.22;;;9.35;84.39
61394;BME280;48555;50.952;-0.120;2023-02-12T06:21:24;103214.66;;;9.35;84.45
61394;BME280;48555;50.952;-0.120;2023-02-12T06:23:50;103202.59;;;9.32;84.29
61394;BME280;48555;50.952;-0.120;2023-02-12T06:26:16;103208.56;;;9.36;84.56
61394;BME280;48555;50.952;-0.120;2023-02-12T06:28:41;103215.50;;;9.37;84.41
61394;BME280;48555;50.952;-0.120;2023-02-12T06:31:25;103206.81;;;9.37;84.42
61394;BME280;48555;50.952;-0.120;2023-02-12T06:33:52;103209.34;;;9.40;84.27
61394;BME280;48555;50.952;-0.120;2023-02-12T06:36:18;103211.94;;;9.41;84.37
61394;BME280;48555;50.952;-0.120;2023-02-12T06:38:44;103212.81;;;9.40;84.35
61394;BME280;48555;50.952;-0.120;2023-02-12T06:41:10;103212.72;;;9.43;84.41
61394;BME280;48555;50.952;-0.120;2023-02-12T06:43:36;103220.56;;;9.43;84.51
61394;BME280;48555;50.952;-0.120;2023-02-12T06:46:03;103212.78;;;9.42;84.40
61394;BME280;48555;50.952;-0.120;2023-02-12T06:48:29;103210.16;;;9.42;84.56
61394;BME280;48555;50.952;-0.120;2023-02-12T06:50:54;103207.56;;;9.40;84.65
61394;BME280;48555;50.952;-0.120;2023-02-12T06:53:20;103209.16;;;9.47;84.55
61394;BME280;48555;50.952;-0.120;2023-02-12T06:55:45;103209.91;;;9.51;84.70
61394;BME280;48555;50.952;-0.120;2023-02-12T06:58:11;103214.31;;;9.49;84.49
61394;BME280;48555;50.952;-0.120;2023-02-12T07:00:36;103218.69;;;9.48;84.63
61394;BME280;48555;50.952;-0.120;2023-02-12T07:03:01;103215.25;;;9.46;84.71
61394;BME280;48555;50.952;-0.120;2023-02-12T07:05:27;103208.31;;;9.45;84.60
61394;BME280;48555;50.952;-0.120;2023-02-12T07:07:52;103214.38;;;9.47;84.73
61394;BME280;48555;50.952;-0.120;2023-02-12T07:10:18;103213.56;;;9.44;84.87
61394;BME280;48555;50.952;-0.120;2023-02-12T07:12:43;103221.47;;;9.42;84.82
61394;BME280;48555;50.952;-0.120;2023-02-12T07:15:10;103212.94;;;9.36;84.78
61394;BME280;48555;50.952;-0.120;2023-02-12T07:17:35;103218.09;;;9.37;84.94
61394;BME280;48555;50.952;-0.120;2023-02-12T07:20:01;103220.78;;;9.36;85.33
61394;BME280;48555;50.952;-0.120;2023-02-12T07:22:26;103226.84;;;9.36;85.17
61394;BME280;48555;50.952;-0.120;2023-02-12T07:24:52;103219.91;;;9.35;85.15
61394;BME280;48555;50.952;-0.120;2023-02-12T07:27:17;103226.94;;;9.33;85.27
61394;BME280;48555;50.952;-0.120;2023-02-12T07:29:42;103226.16;;;9.29;85.51
61394;BME280;48555;50.952;-0.120;2023-02-12T07:32:08;103229.72;;;9.25;85.66
61394;BME280;48555;50.952;-0.120;2023-02-12T07:34:33;103229.88;;;9.21;85.86
61394;BME280;48555;50.952;-0.120;2023-02-12T07:36:58;103228.22;;;9.17;86.23
61394;BME280;48555;50.952;-0.120;2023-02-12T07:39:24;103229.22;;;9.13;86.24
61394;BME280;48555;50.952;-0.120;2023-02-12T07:41:49;103224.94;;;9.08;86.54
61394;BME280;48555;50.952;-0.120;2023-02-12T07:44:15;103233.59;;;9.10;86.58
61394;BME280;48555;50.952;-0.120;2023-02-12T07:46:45;103231.84;;;9.11;86.83
61394;BME280;48555;50.952;-0.120;2023-02-12T07:49:20;103229.22;;;9.13;86.73
61394;BME280;48555;50.952;-0.120;2023-02-12T07:51:47;103235.19;;;9.18;86.88
61394;BME280;48555;50.952;-0.120;2023-02-12T07:54:13;103226.44;;;9.19;86.90
61394;BME280;48555;50.952;-0.120;2023-02-12T07:56:40;103229.00;;;9.20;86.85
61394;BME280;48555;50.952;-0.120;2023-02-12T07:59:09;103226.44;;;9.19;86.96
61394;BME280;48555;50.952;-0.120;2023-02-12T08:01:37;103230.66;;;9.23;86.91
61394;BME280;48555;50.952;-0.120;2023-02-12T08:04:09;103232.47;;;9.21;86.85
61394;BME280;48555;50.952;-0.120;2023-02-12T08:06:37;103231.53;;;9.23;87.12
61394;BME280;48555;50.952;-0.120;2023-02-12T08:09:05;103234.19;;;9.22;87.59
61394;BME280;48555;50.952;-0.120;2023-02-12T08:11:31;103231.53;;;9.23;87.22
61394;BME280;48555;50.952;-0.120;2023-02-12T08:13:58;103240.19;;;9.25;87.28
61394;BME280;48555;50.952;-0.120;2023-02-12T08:16:25;103233.28;;;9.23;87.63
61394;BME280;48555;50.952;-0.120;2023-02-12T08:18:51;103235.03;;;9.22;87.65
61394;BME280;48555;50.952;-0.120;2023-02-12T08:21:19;103248.94;;;9.23;87.92
61394;BME280;48555;50.952;-0.120;2023-02-12T08:23:45;103250.75;;;9.21;87.91
61394;BME280;48555;50.952;-0.120;2023-02-12T08:26:16;103247.41;;;9.16;88.61
61394;BME280;48555;50.952;-0.120;2023-02-12T08:28:47;103250.09;;;9.13;88.69
61394;BME280;48555;50.952;-0.120;2023-02-12T08:31:17;103251.72;;;9.17;88.50
61394;BME280;48555;50.952;-0.120;2023-02-12T08:33:45;103245.53;;;9.21;88.57
61394;BME280;48555;50.952;-0.120;2023-02-12T08:36:12;103254.91;;;9.28;88.48
61394;BME280;48555;50.952;-0.120;2023-02-12T08:38:39;103265.34;;;9.29;88.68
61394;BME280;48555;50.952;-0.120;2023-02-12T08:41:09;103259.22;;;9.29;88.58
61394;BME280;48555;50.952;-0.120;2023-02-12T08:43:35;103254.91;;;9.28;88.60
61394;BME280;48555;50.952;-0.120;2023-02-12T08:46:06;103264.38;;;9.32;88.70
61394;BME280;48555;50.952;-0.120;2023-02-12T08:48:32;103259.22;;;9.29;89.03
61394;BME280;48555;50.952;-0.120;2023-02-12T08:51:27;103258.47;;;9.25;88.86
61394;BME280;48555;50.952;-0.120;2023-02-12T08:53:56;103263.69;;;9.25;88.96
61394;BME280;48555;50.952;-0.120;2023-02-12T08:56:22;103261.97;;;9.24;89.28
61394;BME280;48555;50.952;-0.120;2023-02-12T08:58:48;103256.06;;;9.18;89.40
61394;BME280;48555;50.952;-0.120;2023-02-12T09:01:19;103265.59;;;9.19;90.09
61394;BME280;48555;50.952;-0.120;2023-02-12T09:03:45;103275.91;;;9.23;89.61
61394;BME280;48555;50.952;-0.120;2023-02-12T09:06:11;103261.22;;;9.21;89.86
61394;BME280;48555;50.952;-0.120;2023-02-12T09:08:38;103267.19;;;9.24;89.94
61394;BME280;48555;50.952;-0.120;2023-02-12T09:11:11;103270.59;;;9.26;89.75
61394;BME280;48555;50.952;-0.120;2023-02-12T09:13:37;103274.97;;;9.26;90.16
61394;BME280;48555;50.952;-0.120;2023-02-12T09:16:04;103274.94;;;9.27;90.31
61394;BME280;48555;50.952;-0.120;2023-02-12T09:18:30;103273.94;;;9.33;90.20
61394;BME280;48555;50.952;-0.120;2023-02-12T09:21:01;103283.31;;;9.40;90.09
61394;BME280;48555;50.952;-0.120;2023-02-12T09:23:26;103271.91;;;9.44;90.03
61394;BME280;48555;50.952;-0.120;2023-02-12T09:25:52;103264.91;;;9.45;89.94
61394;BME280;48555;50.952;-0.120;2023-02-12T09:28:17;103275.22;;;9.49;90.03
61394;BME280;48555;50.952;-0.120;2023-02-12T09:30:42;103273.41;;;9.53;89.72
61394;BME280;48555;50.952;-0.120;2023-02-12T09:33:09;103270.72;;;9.56;89.91
61394;BME280;48555;50.952;-0.120;2023-02-12T09:35:36;103276.75;;;9.58;89.64
61394;BME280;48555;50.952;-0.120;2023-02-12T09:38:04;103268.06;;;9.58;89.57
61394;BME280;48555;50.952;-0.120;2023-02-12T09:40:45;103267.16;;;9.59;89.63
61394;BME280;48555;50.952;-0.120;2023-02-12T09:43:30;103270.56;;;9.62;89.56
61394;BME280;48555;50.952;-0.120;2023-02-12T09:46:09;103267.19;;;9.57;89.50
61394;BME280;48555;50.952;-0.120;2023-02-12T09:49:14;103281.19;;;9.54;89.59
61394;BME280;48555;50.952;-0.120;2023-02-12T09:51:44;103269.84;;;9.55;89.56
61394;BME280;48555;50.952;-0.120;2023-02-12T09:54:18;103274.97;;;9.59;89.40
61394;BME280;48555;50.952;-0.120;2023-02-12T09:56:51;103274.97;;;9.59;89.53
61394;BME280;48555;50.952;-0.120;2023-02-12T09:59:39;103267.13;;;9.60;89.60
61394;BME280;48555;50.952;-0.120;2023-02-12T10:02:13;103270.66;;;9.58;89.67
61394;BME280;48555;50.952;-0.120;2023-02-12T10:04:38;103279.25;;;9.61;89.70
61394;BME280;48555;50.952;-0.120;2023-02-12T10:07:19;103267.06;;;9.62;89.53
61394;BME280;48555;50.952;-0.120;2023-02-12T10:21:02;103272.38;;;9.59;89.45
61394;BME280;48555;50.952;-0.120;2023-02-12T10:23:40;103272.38;;;9.59;89.55
61394;BME280;48555;50.952;-0.120;2023-02-12T10:28:40;103269.66;;;9.63;89.61
61394;BME280;48555;50.952;-0.120;2023-02-12T10:31:11;103273.94;;;9.66;89.56
61394;BME280;48555;50.952;-0.120;2023-02-12T10:33:47;103277.28;;;9.71;89.53
61394;BME280;48555;50.952;-0.120;2023-02-12T10:36:45;103277.13;;;9.77;89.62
61394;BME280;48555;50.952;-0.120;2023-02-12T10:41:47;103277.63;;;9.90;89.19
61394;BME280;48555;50.952;-0.120;2023-02-12T10:44:15;103277.44;;;9.96;89.12
61394;BME280;48555;50.952;-0.120;2023-02-12T10:46:40;103270.28;;;10.02;89.03
61394;BME280;48555;50.952;-0.120;2023-02-12T10:49:06;103270.91;;;10.11;88.95
61394;BME280;48555;50.952;-0.120;2023-02-12T10:56:57;103269.69;;;10.22;88.35
61394;BME280;48555;50.952;-0.120;2023-02-12T10:59:22;103274.81;;;10.27;88.51
61394;BME280;48555;50.952;-0.120;2023-02-12T11:01:48;103268.47;;;10.36;88.41
61394;BME280;48555;50.952;-0.120;2023-02-12T11:04:23;103263.16;;;10.37;88.01
61394;BME280;48555;50.952;-0.120;2023-02-12T11:07:04;103269.31;;;10.36;87.72
61394;BME280;48555;50.952;-0.120;2023-02-12T11:09:41;103267.66;;;10.34;87.79
61394;BME280;48555;50.952;-0.120;2023-02-12T11:15:25;103267.69;;;10.32;87.22
61394;BME280;48555;50.952;-0.120;2023-02-12T11:18:21;103267.69;;;10.32;87.14
61394;BME280;48555;50.952;-0.120;2023-02-12T11:20:52;103267.78;;;10.29;87.14
61394;BME280;48555;50.952;-0.120;2023-02-12T11:23:25;103262.44;;;10.32;87.28
61394;BME280;48555;50.952;-0.120;2023-02-12T11:25:57;103265.97;;;10.31;87.07
61394;BME280;48555;50.952;-0.120;2023-02-12T11:28:23;103262.53;;;10.29;87.09
61394;BME280;48555;50.952;-0.120;2023-02-12T11:30:53;103253.97;;;10.24;87.50
61394;BME280;48555;50.952;-0.120;2023-02-12T11:33:34;103245.22;;;10.25;87.59
61394;BME280;48555;50.952;-0.120;2023-02-12T11:39:08;103254.75;;;10.28;87.87
61394;BME280;48555;50.952;-0.120;2023-02-12T11:41:40;103246.22;;;10.21;87.98
61394;BME280;48555;50.952;-0.120;2023-02-12T11:44:15;103250.63;;;10.19;87.91
61394;BME280;48555;50.952;-0.120;2023-02-12T11:46:55;103240.03;;;10.23;88.05
61394;BME280;48555;50.952;-0.120;2023-02-12T11:49:26;103232.22;;;10.22;88.04
61394;BME280;48555;50.952;-0.120;2023-02-12T11:51:53;103239.06;;;10.26;88.12
61394;BME280;48555;50.952;-0.120;2023-02-12T11:54:23;103237.56;;;10.19;88.26
61394;BME280;48555;50.952;-0.120;2023-02-12T11:56:49;103240.19;;;10.17;88.50
61394;BME280;48555;50.952;-0.120;2023-02-12T11:59:34;103234.22;;;10.14;88.55
61394;BME280;48555;50.952;-0.120;2023-02-12T12:02:16;103236.91;;;10.11;88.59
61394;BME280;48555;50.952;-0.120;2023-02-12T12:04:46;103230.88;;;10.09;88.74
61394;BME280;48555;50.952;-0.120;2023-02-12T12:07:39;103228.19;;;10.12;88.71
61394;BME280;48555;50.952;-0.120;2023-02-12T12:12:56;103223.84;;;10.11;89.23
61394;BME280;48555;50.952;-0.120;2023-02-12T12:15:31;103222.72;;;10.19;88.99
61394;BME280;48555;50.952;-0.120;2023-02-12T12:21:35;103212.69;;;10.35;88.96
61394;BME280;48555;50.952;-0.120;2023-02-12T12:24:16;103198.69;;;10.36;89.04
61394;BME280;48555;50.952;-0.120;2023-02-12T12:26:46;103201.75;;;10.51;89.11
61394;BME280;48555;50.952;-0.120;2023-02-12T12:29:23;103193.78;;;10.54;88.86
61394;BME280;48555;50.952;-0.120;2023-02-12T12:32:02;103203.78;;;10.67;88.82
61394;BME280;48555;50.952;-0.120;2023-02-12T12:34:29;103199.25;;;10.73;88.38
61394;BME280;48555;50.952;-0.120;2023-02-12T12:40:06;103193.56;;;10.86;88.32
61394;BME280;48555;50.952;-0.120;2023-02-12T12:45:29;103187.09;;;10.97;87.90
61394;BME280;48555;50.952;-0.120;2023-02-12T12:53:27;103180.41;;;10.88;85.33
61394;BME280;48555;50.952;-0.120;2023-02-12T13:01:33;103180.13;;;10.71;84.72
61394;BME280;48555;50.952;-0.120;2023-02-12T13:13:19;103162.09;;;10.63;83.79
61394;BME280;48555;50.952;-0.120;2023-02-12T13:16:26;103162.09;;;10.63;84.12
61394;BME280;48555;50.952;-0.120;2023-02-12T13:21:54;103163.75;;;10.39;84.35
61394;BME280;48555;50.952;-0.120;2023-02-12T13:24:34;103157.75;;;10.35;84.55
61394;BME280;48555;50.952;-0.120;2023-02-12T13:27:16;103157.06;;;10.30;84.79
61394;BME280;48555;50.952;-0.120;2023-02-12T13:29:48;103160.50;;;10.31;84.97
61394;BME280;48555;50.952;-0.120;2023-02-12T13:32:22;103147.44;;;10.31;84.97
61394;BME280;48555;50.952;-0.120;2023-02-12T13:34:49;103157.84;;;10.32;84.99
61394;BME280;48555;50.952;-0.120;2023-02-12T13:37:42;103159.59;;;10.32;85.39
61394;BME280;48555;50.952;-0.120;2023-02-12T13:40:15;103155.94;;;10.37;85.26
61394;BME280;48555;50.952;-0.120;2023-02-12T13:42:49;103157.69;;;10.37;85.09
61394;BME280;48555;50.952;-0.120;2023-02-12T13:45:29;103152.84;;;10.24;85.11
61394;BME280;48555;50.952;-0.120;2023-02-12T13:47:58;103151.81;;;10.30;84.56
61394;BME280;48555;50.952;-0.120;2023-02-12T13:50:37;103151.81;;;10.30;84.45
61394;BME280;48555;50.952;-0.120;2023-02-12T13:58:50;103141.47;;;10.27;84.19
61394;BME280;48555;50.952;-0.120;2023-02-12T14:01:39;103146.69;;;10.26;84.58
61394;BME280;48555;50.952;-0.120;2023-02-12T14:12:13;103142.72;;;10.14;84.70
61394;BME280;48555;50.952;-0.120;2023-02-12T14:14:42;103124.78;;;10.01;84.56
61394;BME280;48555;50.952;-0.120;2023-02-12T14:27:44;103147.09;;;10.13;85.22
61394;BME280;48555;50.952;-0.120;2023-02-12T14:37:51;103136.63;;;10.13;84.83
61394;BME280;48555;50.952;-0.120;2023-02-12T14:43:03;103137.97;;;9.98;84.69
61394;BME280;48555;50.952;-0.120;2023-02-12T14:45:33;103133.78;;;9.93;85.12
61394;BME280;48555;50.952;-0.120;2023-02-12T14:48:00;103127.78;;;9.89;85.23
61394;BME280;48555;50.952;-0.120;2023-02-12T14:50:38;103120.38;;;9.75;85.79
61394;BME280;48555;50.952;-0.120;2023-02-12T14:53:19;103127.88;;;9.86;85.53
61394;BME280;48555;50.952;-0.120;2023-02-12T14:55:46;103120.72;;;9.93;85.34
61394;BME280;48555;50.952;-0.120;2023-02-12T14:58:18;103124.25;;;9.92;85.40
61394;BME280;48555;50.952;-0.120;2023-02-12T15:00:46;103126.16;;;9.85;85.52
61394;BME280;48555;50.952;-0.120;2023-02-12T15:06:02;103120.25;;;9.80;85.70
61394;BME280;48555;50.952;-0.120;2023-02-12T15:13:47;103109.34;;;9.94;85.01
61394;BME280;48555;50.952;-0.120;2023-02-12T15:16:26;103110.34;;;9.90;85.29